Time;durP1;ratioP1;P1;durP2;ratioP2;P2;SDS_P1;SDS_P2;PMS_P1;PMS_P2;Temp;Humidity;BMP_temperature;BMP_pressure;BME280_temperature;BME280_humidity;BME280_pressure;Samples;Min_cycle;Max_cycle;Signal;HPM_P1;HPM_P2
2021/12/11 00:01:18;;;;;;;;;;;;;;;1.28;100.00;94703.41;5026792;28;19921;-81
2021/12/11 00:03:45;;;;;;;;;;;;;;;1.34;100.00;94719.13;5026277;28;19953;-81
2021/12/11 00:06:14;;;;;;;;;;;;;;;1.21;100.00;94712.28;5027406;28;19922;-81
2021/12/11 00:08:40;;;;;;;;;;;;;;;1.20;100.00;94714.06;5026406;28;19932;-80
2021/12/11 00:11:08;;;;;;;;;;;;;;;1.19;100.00;94712.50;5027380;28;19928;-80
2021/12/11 00:13:36;;;;;;;;;;;;;;;1.26;100.00;94723.56;5032948;28;19945;-78
2021/12/11 00:16:07;;;;;;;;;;;;;;;1.18;100.00;94718.66;5017256;28;19922;-80
2021/12/11 00:18:32;;;;;;;;;;;;;;;1.34;100.00;94732.06;5017715;28;19960;-79
2021/12/11 00:21:00;;;;;;;;;;;;;;;1.19;100.00;94732.44;5035863;28;19913;-78
2021/12/11 00:23:27;;;;;;;;;;;;;;;1.20;100.00;94734.00;5035255;28;19910;-79
2021/12/11 00:25:52;;;;;;;;;;;;;;;1.14;100.00;94738.25;5035331;28;19909;-81
2021/12/11 00:28:18;;;;;;;;;;;;;;;1.19;100.00;94742.78;5030735;28;19932;-80
2021/12/11 00:30:45;;;;;;;;;;;;;;;1.20;100.00;94747.75;5027080;28;19932;-79
2021/12/11 00:33:14;;;;;;;;;;;;;;;1.19;100.00;94747.97;5025735;28;20311;-80
2021/12/11 00:35:39;;;;;;;;;;;;;;;1.14;100.00;94764.13;5025828;28;19932;-80
2021/12/11 00:38:06;;;;;;;;;;;;;;;1.16;100.00;94759.53;5007971;28;20024;-81
2021/12/11 00:40:33;;;;;;;;;;;;;;;1.14;100.00;94764.13;5006287;28;20059;-78
2021/12/11 00:43:03;;;;;;;;;;;;;;;1.15;100.00;94778.66;5029263;28;19967;-78
2021/12/11 00:45:31;;;;;;;;;;;;;;;1.09;100.00;94778.72;5030680;28;19932;-78
2021/12/11 00:47:58;;;;;;;;;;;;;;;1.11;100.00;94772.31;5028880;28;19921;-80
2021/12/11 00:50:27;;;;;;;;;;;;;;;1.07;100.00;94791.88;5026003;28;19925;-81
2021/12/11 00:52:56;;;;;;;;;;;;;;;1.10;100.00;94786.28;5025912;28;19929;-82
2021/12/11 00:55:22;;;;;;;;;;;;;;;1.12;100.00;94788.66;5030653;28;19922;-78
2021/12/11 00:57:49;;;;;;;;;;;;;;;1.12;100.00;94781.66;5030076;28;19921;-81
2021/12/11 01:00:17;;;;;;;;;;;;;;;1.09;100.00;94800.22;5034293;28;19922;-79
2021/12/11 01:02:43;;;;;;;;;;;;;;;1.11;100.00;94802.59;5038797;28;19949;-78
2021/12/11 01:05:09;;;;;;;;;;;;;;;1.18;100.00;94809.31;5031273;28;19992;-77
2021/12/11 01:07:36;;;;;;;;;;;;;;;1.12;100.00;94799.78;5010295;28;20067;-80
2021/12/11 01:10:06;;;;;;;;;;;;;;;1.13;100.00;94814.34;5031166;28;19922;-82
2021/12/11 01:12:41;;;;;;;;;;;;;;;1.20;100.00;94807.31;5030411;28;19919;-81
2021/12/11 01:15:13;;;;;;;;;;;;;;;1.15;100.00;94820.09;5030778;28;19925;-79
2021/12/11 01:17:45;;;;;;;;;;;;;;;1.10;100.00;94829.50;5012607;28;20013;-80
2021/12/11 01:20:13;;;;;;;;;;;;;;;1.20;100.00;94838.41;5030727;28;19929;-80
2021/12/11 01:22:40;;;;;;;;;;;;;;;1.19;100.00;94831.63;5030219;28;19991;-81
2021/12/11 01:25:07;;;;;;;;;;;;;;;1.16;100.00;94841.63;5029312;28;20204;-80
2021/12/11 01:27:33;;;;;;;;;;;;;;;1.17;100.00;94838.81;5030117;28;19922;-80
2021/12/11 01:30:00;;;;;;;;;;;;;;;1.23;100.00;94850.91;5038888;28;19997;-77
2021/12/11 01:32:26;;;;;;;;;;;;;;;1.21;100.00;94860.69;5037280;28;19949;-80
2021/12/11 01:34:54;;;;;;;;;;;;;;;1.23;100.00;94853.50;5013484;28;19948;-82
2021/12/11 01:37:20;;;;;;;;;;;;;;;1.27;100.00;94854.66;5029794;28;19963;-82
2021/12/11 01:39:48;;;;;;;;;;;;;;;1.23;100.00;94856.09;5031029;28;19909;-82
2021/12/11 01:42:17;;;;;;;;;;;;;;;1.24;100.00;94855.09;5029301;28;19937;-81
2021/12/11 01:44:44;;;;;;;;;;;;;;;1.25;100.00;94861.09;5030136;28;19933;-81
2021/12/11 01:47:13;;;;;;;;;;;;;;;1.20;100.00;94864.28;5028320;28;19922;-81
2021/12/11 01:49:39;;;;;;;;;;;;;;;1.25;100.00;94861.88;5029318;28;19921;-83
2021/12/11 01:52:08;;;;;;;;;;;;;;;1.26;100.00;94868.63;5034148;28;19980;-80
2021/12/11 01:54:35;;;;;;;;;;;;;;;1.18;100.00;94881.03;5009995;28;20373;-79
2021/12/11 01:57:04;;;;;;;;;;;;;;;1.17;100.00;94889.81;5025867;28;19968;-82
2021/12/11 01:59:31;;;;;;;;;;;;;;;1.22;100.00;94892.56;5027680;28;19972;-81
2021/12/11 02:02:02;;;;;;;;;;;;;;;1.30;100.00;94902.69;5029399;28;19940;-82
2021/12/11 02:04:28;;;;;;;;;;;;;;;1.19;100.00;94906.75;5033379;28;19992;-80
2021/12/11 02:06:54;;;;;;;;;;;;;;;1.22;100.00;94902.94;5017328;28;19928;-81
2021/12/11 02:09:22;;;;;;;;;;;;;;;1.19;100.00;94914.53;5017307;28;20016;-79
2021/12/11 02:11:50;;;;;;;;;;;;;;;1.20;100.00;94908.34;5037841;28;19929;-81
2021/12/11 02:14:23;;;;;;;;;;;;;;;1.18;100.00;94918.09;5031402;28;20506;-82
2021/12/11 02:16:49;;;;;;;;;;;;;;;1.14;100.00;94916.94;5028599;28;19921;-83
2021/12/11 02:19:18;;;;;;;;;;;;;;;1.22;100.00;94923.66;5028750;28;19957;-82
2021/12/11 02:21:50;;;;;;;;;;;;;;;1.17;100.00;94919.09;5028214;28;19925;-81
2021/12/11 02:24:20;;;;;;;;;;;;;;;1.21;100.00;94928.03;5028398;28;19922;-81
2021/12/11 02:26:48;;;;;;;;;;;;;;;1.19;100.00;94929.28;5027112;28;19921;-83
2021/12/11 02:29:16;;;;;;;;;;;;;;;1.21;100.00;94938.41;5026833;28;19959;-81
2021/12/11 02:31:46;;;;;;;;;;;;;;;1.24;100.00;94938.00;5027718;28;19961;-82
2021/12/11 02:34:13;;;;;;;;;;;;;;;1.07;100.00;94943.84;5028697;28;20459;-82
2021/12/11 02:36:41;;;;;;;;;;;;;;;1.09;100.00;94937.47;5010429;28;19968;-81
2021/12/11 02:39:10;;;;;;;;;;;;;;;1.09;100.00;94940.06;5028607;28;19921;-81
2021/12/11 02:41:38;;;;;;;;;;;;;;;1.12;100.00;94955.19;5028322;28;19921;-81
2021/12/11 02:44:05;;;;;;;;;;;;;;;1.02;100.00;94944.47;5028138;28;20013;-81
2021/12/11 02:46:32;;;;;;;;;;;;;;;1.07;100.00;94951.63;5027184;28;19953;-81
2021/12/11 02:49:03;;;;;;;;;;;;;;;1.03;100.00;94951.25;5034799;28;19929;-82
2021/12/11 02:51:30;;;;;;;;;;;;;;;1.02;100.00;94960.00;5035091;28;19932;-79
2021/12/11 02:53:58;;;;;;;;;;;;;;;1.06;100.00;94971.56;5014211;28;19944;-81
2021/12/11 02:56:30;;;;;;;;;;;;;;;1.10;100.00;94969.34;5026784;28;19925;-81
2021/12/11 02:58:58;;;;;;;;;;;;;;;1.06;100.00;94974.13;5026961;28;19933;-82
2021/12/11 03:01:28;;;;;;;;;;;;;;;1.14;100.00;94981.69;5027245;28;19921;-81
2021/12/11 03:04:04;;;;;;;;;;;;;;;1.04;100.00;94982.13;5028548;28;19925;-81
2021/12/11 03:06:37;;;;;;;;;;;;;;;1.13;100.00;94971.50;5029966;28;20009;-82
2021/12/11 03:09:04;;;;;;;;;;;;;;;1.13;100.00;94984.47;5028338;28;19981;-81
2021/12/11 03:11:32;;;;;;;;;;;;;;;1.14;100.00;94989.44;5027770;28;19948;-82
2021/12/11 03:13:58;;;;;;;;;;;;;;;1.08;100.00;94998.06;5028644;28;19921;-81
2021/12/11 03:16:26;;;;;;;;;;;;;;;1.08;100.00;94999.81;5028030;28;19921;-80
2021/12/11 03:18:53;;;;;;;;;;;;;;;1.09;100.00;94991.88;5027834;28;19922;-82
2021/12/11 03:21:21;;;;;;;;;;;;;;;1.11;100.00;95000.22;5012306;28;19944;-81
2021/12/11 03:23:47;;;;;;;;;;;;;;;1.11;100.00;95002.81;5031671;28;19921;-81
2021/12/11 03:26:12;;;;;;;;;;;;;;;1.10;100.00;94996.03;5012506;28;19916;-79
2021/12/11 03:28:39;;;;;;;;;;;;;;;1.19;100.00;95007.75;5036735;28;19913;-79
2021/12/11 03:31:09;;;;;;;;;;;;;;;1.19;100.00;95017.34;5017281;28;19922;-80
2021/12/11 03:33:36;;;;;;;;;;;;;;;1.16;100.00;95015.94;5034421;28;20035;-80
2021/12/11 03:36:04;;;;;;;;;;;;;;;1.18;100.00;95034.63;5012848;28;19918;-81
2021/12/11 03:38:30;;;;;;;;;;;;;;;1.15;100.00;95026.50;5016717;28;19921;-80
2021/12/11 03:40:55;;;;;;;;;;;;;;;1.27;100.00;95036.00;5033420;28;20007;-81
2021/12/11 03:43:22;;;;;;;;;;;;;;;1.13;100.00;95042.25;5034882;28;19965;-81
2021/12/11 03:45:51;;;;;;;;;;;;;;;1.17;100.00;95040.03;5016790;28;19932;-80
2021/12/11 03:48:18;;;;;;;;;;;;;;;1.06;100.00;95036.28;5027965;28;19925;-81
2021/12/11 03:50:47;;;;;;;;;;;;;;;1.04;100.00;95052.03;5009347;28;19990;-81
2021/12/11 03:53:13;;;;;;;;;;;;;;;1.17;100.00;95055.56;5027242;28;20004;-81
2021/12/11 03:55:40;;;;;;;;;;;;;;;1.11;100.00;95054.59;5026973;28;19968;-80
2021/12/11 03:58:09;;;;;;;;;;;;;;;1.01;100.00;95060.19;5008828;28;19922;-81
2021/12/11 04:00:37;;;;;;;;;;;;;;;1.10;100.00;95057.41;5009066;28;19932;-82
2021/12/11 04:03:06;;;;;;;;;;;;;;;1.13;100.00;95070.75;5012574;28;19921;-80
2021/12/11 04:05:35;;;;;;;;;;;;;;;1.01;100.00;95072.34;5008964;28;19921;-82
2021/12/11 04:08:03;;;;;;;;;;;;;;;0.98;100.00;95077.97;5021706;28;19921;-81
2021/12/11 04:10:29;;;;;;;;;;;;;;;1.01;100.00;95075.75;5023678;28;19929;-82
2021/12/11 04:12:55;;;;;;;;;;;;;;;1.02;100.00;95068.75;5026564;28;20016;-83
2021/12/11 04:15:20;;;;;;;;;;;;;;;1.00;100.00;95081.94;5025803;28;19929;-81
2021/12/11 04:17:46;;;;;;;;;;;;;;;0.98;100.00;95091.69;5026628;28;19921;-81
2021/12/11 04:20:14;;;;;;;;;;;;;;;0.99;100.00;95089.91;5011796;28;19921;-78
2021/12/11 04:22:40;;;;;;;;;;;;;;;0.98;100.00;95099.47;5014233;28;19928;-80
2021/12/11 04:25:07;;;;;;;;;;;;;;;1.02;100.00;95094.66;5030770;28;20447;-80
2021/12/11 04:27:32;;;;;;;;;;;;;;;1.02;100.00;95089.47;5025714;28;19944;-81
2021/12/11 04:29:58;;;;;;;;;;;;;;;0.93;100.00;95096.69;5024835;28;19925;-81
2021/12/11 04:32:25;;;;;;;;;;;;;;;1.02;100.00;95100.66;5008946;28;20036;-82
2021/12/11 04:34:54;;;;;;;;;;;;;;;1.07;100.00;95112.97;5025659;28;19932;-80
2021/12/11 04:37:24;;;;;;;;;;;;;;;1.03;100.00;95111.81;5025473;28;20397;-81
2021/12/11 04:39:55;;;;;;;;;;;;;;;1.12;100.00;95120.94;5025438;28;19931;-79
2021/12/11 04:45:07;;;;;;;;;;;;;;;1.05;100.00;95128.72;5026221;28;19928;-82
2021/12/11 04:47:41;;;;;;;;;;;;;;;0.93;100.00;95129.56;5025227;28;19922;-80
2021/12/11 04:50:14;;;;;;;;;;;;;;;0.93;100.00;95127.75;5047353;23;19921;-83
2021/12/11 04:52:55;;;;;;;;;;;;;;;0.93;100.00;95135.53;5040224;28;19960;-81
2021/12/11 04:58:09;;;;;;;;;;;;;;;1.00;100.00;95138.09;5041547;28;19947;-82
2021/12/11 05:04:01;;;;;;;;;;;;;;;0.97;100.00;95149.66;5021345;28;19949;-81
2021/12/11 05:06:41;;;;;;;;;;;;;;;0.93;100.00;95152.84;5047337;28;19909;-82
2021/12/11 05:09:35;;;;;;;;;;;;;;;0.99;100.00;95162.41;5054898;28;20064;-82
2021/12/11 05:12:26;;;;;;;;;;;;;;;1.10;100.00;95168.75;5053124;28;19916;-81
2021/12/11 05:14:51;;;;;;;;;;;;;;;1.14;100.00;95175.94;5054904;28;19935;-82
2021/12/11 05:17:19;;;;;;;;;;;;;;;1.09;100.00;95186.09;5055083;28;19909;-81
2021/12/11 05:19:45;;;;;;;;;;;;;;;0.99;100.00;95190.88;5055314;28;19982;-82
2021/12/11 05:22:11;;;;;;;;;;;;;;;1.00;100.00;95200.25;5055281;28;19909;-82
2021/12/11 05:24:38;;;;;;;;;;;;;;;1.06;100.00;95196.84;5054427;28;19936;-82
2021/12/11 05:27:04;;;;;;;;;;;;;;;1.13;100.00;95202.84;5049927;28;19932;-81
2021/12/11 05:29:29;;;;;;;;;;;;;;;1.13;100.00;95214.97;5050265;28;19921;-81
2021/12/11 05:31:55;;;;;;;;;;;;;;;1.13;100.00;95231.31;5046793;28;20304;-82
2021/12/11 05:34:21;;;;;;;;;;;;;;;1.10;100.00;95241.28;5043727;28;19921;-81
2021/12/11 05:36:46;;;;;;;;;;;;;;;0.85;100.00;95256.59;5044203;28;19925;-82
2021/12/11 05:39:13;;;;;;;;;;;;;;;0.60;100.00;95257.19;5049796;28;19948;-82
2021/12/11 05:41:41;;;;;;;;;;;;;;;0.48;100.00;95262.13;5048621;28;19936;-82
2021/12/11 05:44:07;;;;;;;;;;;;;;;0.26;100.00;95264.06;5051106;28;19936;-81
2021/12/11 05:46:33;;;;;;;;;;;;;;;0.20;100.00;95267.41;5051730;28;19909;-83
2021/12/11 05:48:58;;;;;;;;;;;;;;;0.17;100.00;95264.44;5047956;28;20058;-83
2021/12/11 05:51:24;;;;;;;;;;;;;;;0.26;100.00;95271.81;5050498;28;19929;-83
2021/12/11 05:53:53;;;;;;;;;;;;;;;0.25;100.00;95270.22;5044268;28;20004;-83
2021/12/11 05:56:19;;;;;;;;;;;;;;;0.25;100.00;95275.41;5049123;28;20296;-82
2021/12/11 05:58:56;;;;;;;;;;;;;;;0.32;100.00;95284.97;5055258;28;19909;-84
2021/12/11 06:01:24;;;;;;;;;;;;;;;0.45;100.00;95285.03;5048502;28;19921;-83
2021/12/11 06:03:53;;;;;;;;;;;;;;;0.35;100.00;95292.34;5051113;28;20099;-82
2021/12/11 06:06:18;;;;;;;;;;;;;;;0.38;100.00;95299.72;5053964;28;19921;-82
2021/12/11 06:08:44;;;;;;;;;;;;;;;0.39;100.00;95304.69;5058162;28;19988;-82
2021/12/11 06:11:10;;;;;;;;;;;;;;;0.50;100.00;95306.72;5051243;28;19925;-83
2021/12/11 06:13:36;;;;;;;;;;;;;;;0.52;100.00;95311.69;5046005;28;19928;-82
2021/12/11 06:16:03;;;;;;;;;;;;;;;0.52;100.00;95317.66;5045079;28;19921;-83
2021/12/11 06:18:29;;;;;;;;;;;;;;;0.54;100.00;95330.44;5042937;28;20284;-81
2021/12/11 06:20:54;;;;;;;;;;;;;;;0.53;100.00;95331.41;5043254;28;19992;-83
2021/12/11 06:23:21;;;;;;;;;;;;;;;0.55;100.00;95342.38;5042881;28;20349;-83
2021/12/11 06:25:47;;;;;;;;;;;;;;;0.59;100.00;95347.94;5040832;28;19932;-83
2021/12/11 06:28:15;;;;;;;;;;;;;;;0.59;100.00;95359.09;5040450;28;19921;-83
2021/12/11 06:30:40;;;;;;;;;;;;;;;0.63;100.00;95365.47;5041279;28;19928;-84
2021/12/11 06:33:08;;;;;;;;;;;;;;;0.68;100.00;95365.69;5040860;28;19925;-83
2021/12/11 06:35:39;;;;;;;;;;;;;;;0.73;100.00;95371.09;5041378;28;19928;-83
2021/12/11 06:38:05;;;;;;;;;;;;;;;0.74;100.00;95387.41;5046997;28;19956;-83
2021/12/11 06:40:34;;;;;;;;;;;;;;;0.77;100.00;95390.41;5041010;28;20024;-83
2021/12/11 06:42:59;;;;;;;;;;;;;;;0.74;100.00;95387.41;5039735;28;20389;-82
2021/12/11 06:45:26;;;;;;;;;;;;;;;0.80;100.00;95391.81;5040610;28;19923;-83
2021/12/11 06:47:54;;;;;;;;;;;;;;;0.81;100.00;95408.97;5040906;28;20061;-83
2021/12/11 06:50:22;;;;;;;;;;;;;;;0.83;100.00;95406.16;5040581;28;19936;-84
2021/12/11 06:52:48;;;;;;;;;;;;;;;0.81;100.00;95421.91;5043679;28;19921;-82
2021/12/11 06:55:14;;;;;;;;;;;;;;;0.84;100.00;95425.88;5047926;28;20391;-82
2021/12/11 06:57:39;;;;;;;;;;;;;;;0.85;100.00;95430.06;5050058;28;19921;-82
2021/12/11 07:00:08;;;;;;;;;;;;;;;0.82;100.00;95435.66;5050220;28;19988;-82
2021/12/11 07:02:33;;;;;;;;;;;;;;;0.86;100.00;95440.25;5050265;28;19921;-81
2021/12/11 07:04:59;;;;;;;;;;;;;;;0.85;100.00;95433.44;5048323;28;19932;-82
2021/12/11 07:07:32;;;;;;;;;;;;;;;0.93;100.00;95453.22;5046930;28;19928;-82
2021/12/11 07:09:57;;;;;;;;;;;;;;;0.92;100.00;95456.78;5041496;28;20040;-82
2021/12/11 07:12:23;;;;;;;;;;;;;;;1.00;100.00;95466.97;5043589;28;19924;-82
2021/12/11 07:14:49;;;;;;;;;;;;;;;1.02;100.00;95462.38;5041760;28;19940;-82
2021/12/11 07:17:15;;;;;;;;;;;;;;;1.04;100.00;95470.78;5041745;28;19928;-83
2021/12/11 07:19:41;;;;;;;;;;;;;;;1.00;100.00;95477.31;5041569;28;19921;-82
2021/12/11 07:22:06;;;;;;;;;;;;;;;0.99;100.00;95483.50;5041737;28;19925;-82
2021/12/11 07:24:36;;;;;;;;;;;;;;;1.04;100.00;95487.09;5041521;28;19952;-82
2021/12/11 07:27:05;;;;;;;;;;;;;;;1.05;99.87;95482.72;5041058;28;19921;-82
2021/12/11 07:29:31;;;;;;;;;;;;;;;0.94;99.85;95491.06;5043077;28;19965;-82
2021/12/11 07:31:56;;;;;;;;;;;;;;;1.01;99.55;95507.41;5042560;28;20399;-82
2021/12/11 07:34:22;;;;;;;;;;;;;;;1.12;99.27;95501.66;5042387;28;19921;-81
2021/12/11 07:36:50;;;;;;;;;;;;;;;0.96;99.97;95514.94;5043195;28;19975;-82
2021/12/11 07:39:16;;;;;;;;;;;;;;;1.04;99.96;95512.22;5041561;28;19921;-82
2021/12/11 07:41:43;;;;;;;;;;;;;;;1.10;99.71;95516.63;5046915;28;19921;-82
2021/12/11 07:44:08;;;;;;;;;;;;;;;1.08;100.00;95518.59;5042384;28;20353;-82
2021/12/11 07:46:35;;;;;;;;;;;;;;;1.04;99.76;95538.91;5044328;28;19920;-82
2021/12/11 07:49:03;;;;;;;;;;;;;;;1.09;99.90;95538.34;5048442;28;19928;-82
2021/12/11 07:51:29;;;;;;;;;;;;;;;1.21;99.51;95547.16;5050246;28;19921;-82
2021/12/11 07:53:57;;;;;;;;;;;;;;;1.24;98.77;95548.56;5052025;28;20296;-81
2021/12/11 07:56:23;;;;;;;;;;;;;;;1.32;99.88;95558.75;5043112;28;19921;-83
2021/12/11 07:58:53;;;;;;;;;;;;;;;1.30;99.69;95569.31;5039816;28;19924;-82
2021/12/11 08:01:19;;;;;;;;;;;;;;;1.25;99.87;95582.03;5040542;28;19932;-82
2021/12/11 08:03:45;;;;;;;;;;;;;;;1.36;99.85;95592.84;5040833;28;19944;-82
2021/12/11 08:06:14;;;;;;;;;;;;;;;1.31;100.00;95602.00;5039915;28;19921;-82
2021/12/11 08:08:42;;;;;;;;;;;;;;;1.37;99.22;95610.78;5054485;28;20004;-82
2021/12/11 08:11:11;;;;;;;;;;;;;;;1.42;99.11;95612.81;5049469;28;19928;-82
2021/12/11 08:13:36;;;;;;;;;;;;;;;1.52;99.17;95613.25;5042737;28;19925;-83
2021/12/11 08:16:06;;;;;;;;;;;;;;;1.48;98.44;95622.41;5041016;28;19963;-82
2021/12/11 08:18:35;;;;;;;;;;;;;;;1.37;98.68;95625.53;5040981;28;19921;-82
2021/12/11 08:21:00;;;;;;;;;;;;;;;1.46;98.70;95632.97;5039767;28;19933;-83
2021/12/11 08:23:26;;;;;;;;;;;;;;;1.52;98.15;95634.78;5040105;28;19956;-83
2021/12/11 08:25:52;;;;;;;;;;;;;;;1.59;97.40;95637.41;5039947;28;19963;-82
2021/12/11 08:28:21;;;;;;;;;;;;;;;1.62;97.11;95647.38;5038551;28;20011;-82
2021/12/11 08:30:50;;;;;;;;;;;;;;;1.71;97.29;95653.19;5039813;28;20207;-83
2021/12/11 08:33:19;;;;;;;;;;;;;;;1.61;96.80;95663.13;5040467;28;19921;-83
2021/12/11 08:35:45;;;;;;;;;;;;;;;1.64;97.02;95660.94;5040993;28;19921;-82
2021/12/11 08:38:10;;;;;;;;;;;;;;;1.75;97.25;95667.38;5040062;28;19928;-85
2021/12/11 08:40:37;;;;;;;;;;;;;;;1.74;97.08;95670.97;5041852;28;19961;-85
2021/12/11 08:43:03;;;;;;;;;;;;;;;1.66;96.98;95682.28;5039957;28;19944;-83
2021/12/11 08:45:44;;;;;;;;;;;;;;;1.81;97.19;95695.13;5040278;28;19956;-85
2021/12/11 08:48:11;;;;;;;;;;;;;;;1.80;96.88;95699.50;5040831;28;19921;-84
2021/12/11 08:50:38;;;;;;;;;;;;;;;1.71;96.04;95708.44;5042915;28;19921;-85
2021/12/11 08:53:04;;;;;;;;;;;;;;;1.81;96.95;95716.66;5042341;28;19921;-86
2021/12/11 08:55:31;;;;;;;;;;;;;;;1.79;97.01;95712.69;5039517;28;19921;-86
2021/12/11 08:57:57;;;;;;;;;;;;;;;1.74;96.05;95725.41;5040585;28;19921;-87
2021/12/11 09:00:25;;;;;;;;;;;;;;;1.88;95.72;95731.44;5041786;28;20333;-85
2021/12/11 09:02:52;;;;;;;;;;;;;;;1.93;96.21;95729.06;5044387;28;19921;-83
2021/12/11 09:05:20;;;;;;;;;;;;;;;1.97;96.13;95736.28;5045755;28;19974;-85
2021/12/11 09:07:49;;;;;;;;;;;;;;;2.04;96.33;95741.50;5044918;28;19928;-85
2021/12/11 09:10:17;;;;;;;;;;;;;;;2.05;95.54;95737.94;5045802;28;20381;-86
2021/12/11 09:12:45;;;;;;;;;;;;;;;2.26;95.78;95750.78;5049034;28;19956;-86
2021/12/11 09:15:13;;;;;;;;;;;;;;;2.24;94.67;95752.75;5042310;28;19921;-86
2021/12/11 09:17:41;;;;;;;;;;;;;;;2.29;93.75;95765.94;5042432;28;20301;-86
2021/12/11 09:20:09;;;;;;;;;;;;;;;2.20;94.04;95767.09;5040506;28;19921;-85
2021/12/11 09:22:37;;;;;;;;;;;;;;;2.22;94.46;95772.91;5052138;28;19909;-86
2021/12/11 09:25:07;;;;;;;;;;;;;;;2.19;94.04;95780.28;5051911;28;19968;-86
2021/12/11 09:27:40;;;;;;;;;;;;;;;2.20;93.75;95781.88;5046059;28;19927;-86
2021/12/11 09:30:09;;;;;;;;;;;;;;;2.27;95.73;95793.91;5058567;28;19908;-86
2021/12/11 09:32:36;;;;;;;;;;;;;;;2.25;94.45;95790.69;5058426;28;19913;-86
2021/12/11 09:35:04;;;;;;;;;;;;;;;1.98;95.90;95800.13;5058372;28;19936;-86
2021/12/11 09:37:31;;;;;;;;;;;;;;;1.62;97.16;95804.72;5055224;28;19909;-88
2021/12/11 09:39:57;;;;;;;;;;;;;;;1.68;98.25;95799.56;5051454;28;19932;-88
2021/12/11 09:42:23;;;;;;;;;;;;;;;1.62;100.00;95808.13;5047516;28;19921;-86
2021/12/11 09:44:52;;;;;;;;;;;;;;;1.76;99.49;95814.97;5046606;28;19936;-86
2021/12/11 09:47:19;;;;;;;;;;;;;;;1.99;99.84;95806.13;5048611;28;19925;-87
2021/12/11 09:49:47;;;;;;;;;;;;;;;2.01;98.02;95819.72;5055359;28;19931;-87
2021/12/11 09:52:23;;;;;;;;;;;;;;;2.04;97.47;95814.94;5045909;28;19921;-87
2021/12/11 09:54:49;;;;;;;;;;;;;;;2.15;97.83;95818.78;5045137;28;19921;-86
2021/12/11 09:57:17;;;;;;;;;;;;;;;2.16;97.09;95819.59;5050008;28;19944;-88
2021/12/11 09:59:46;;;;;;;;;;;;;;;2.30;97.10;95827.22;5055145;28;19990;-88
2021/12/11 10:02:16;;;;;;;;;;;;;;;2.22;95.57;95824.81;5057416;28;19913;-86
2021/12/11 10:04:47;;;;;;;;;;;;;;;2.20;95.10;95834.56;5047621;28;19932;-87
2021/12/11 10:09:50;;;;;;;;;;;;;;;2.13;93.46;95833.75;5057561;28;19952;-88
2021/12/11 10:12:20;;;;;;;;;;;;;;;2.16;94.78;95832.56;5051894;28;19991;-87
2021/12/11 10:14:47;;;;;;;;;;;;;;;2.10;93.85;95841.94;5048131;28;19921;-86
2021/12/11 10:17:16;;;;;;;;;;;;;;;2.16;95.31;95845.53;5047865;28;19932;-87
2021/12/11 10:19:44;;;;;;;;;;;;;;;2.09;94.27;95840.31;5046095;28;19921;-86
2021/12/11 10:22:17;;;;;;;;;;;;;;;2.01;94.00;95843.88;5044893;28;20460;-87
2021/12/11 10:24:43;;;;;;;;;;;;;;;2.16;95.31;95859.31;5048041;28;19932;-87
2021/12/11 10:27:10;;;;;;;;;;;;;;;2.27;95.38;95861.38;5048704;28;19921;-87
2021/12/11 10:29:36;;;;;;;;;;;;;;;2.25;95.34;95862.53;5054934;28;19964;-86
2021/12/11 10:32:05;;;;;;;;;;;;;;;2.30;95.00;95870.56;5056462;28;19916;-87
2021/12/11 10:34:33;;;;;;;;;;;;;;;2.26;94.63;95869.31;5056212;28;19921;-87
2021/12/11 10:37:00;;;;;;;;;;;;;;;2.24;95.55;95872.13;5057605;28;20390;-87
2021/12/11 10:39:26;;;;;;;;;;;;;;;2.19;94.33;95868.50;5051191;28;19975;-87
2021/12/11 10:41:52;;;;;;;;;;;;;;;2.22;95.17;95876.72;5051712;28;19921;-86
2021/12/11 10:44:19;;;;;;;;;;;;;;;2.23;94.05;95877.50;5052002;28;19970;-87
2021/12/11 10:46:48;;;;;;;;;;;;;;;2.21;93.77;95888.09;5049790;28;20357;-87
2021/12/11 10:49:15;;;;;;;;;;;;;;;2.18;94.64;95891.06;5048929;28;20011;-87
2021/12/11 10:54:30;;;;;;;;;;;;;;;2.30;92.67;95883.53;3520154;23;19944;-89
2021/12/11 10:57:11;;;;;;;;;;;;;;;2.31;93.81;95893.75;5056658;28;19921;-89
2021/12/11 10:59:41;;;;;;;;;;;;;;;2.32;93.50;95895.34;5037959;28;19909;-88
2021/12/11 11:02:12;;;;;;;;;;;;;;;2.22;93.81;95896.69;5034080;28;19976;-91
2021/12/11 11:04:39;;;;;;;;;;;;;;;2.21;93.93;95898.47;5020947;28;19932;-90
2021/12/11 11:07:07;;;;;;;;;;;;;;;2.19;92.25;95903.03;5020971;28;19996;-91
2021/12/11 11:09:32;;;;;;;;;;;;;;;2.10;92.03;95906.78;5038189;28;19909;-91
2021/12/11 11:12:00;;;;;;;;;;;;;;;2.04;92.36;95908.31;5038225;28;19981;-92
2021/12/11 11:14:27;;;;;;;;;;;;;;;2.09;92.58;95910.34;5037702;28;19964;-92
2021/12/11 11:17:10;;;;;;;;;;;;;;;2.03;91.73;95916.31;5031433;22;19921;-90
2021/12/11 11:19:47;;;;;;;;;;;;;;;2.05;91.96;95920.31;4995468;28;19922;-90
2021/12/11 11:22:15;;;;;;;;;;;;;;;2.11;91.72;95931.75;5000241;28;19910;-89
2021/12/11 11:24:43;;;;;;;;;;;;;;;2.10;91.55;95935.34;5012703;28;19921;-88
2021/12/11 11:27:09;;;;;;;;;;;;;;;2.06;91.45;95936.69;4998976;28;19909;-92
2021/12/11 11:29:37;;;;;;;;;;;;;;;2.10;90.87;95943.91;5000748;28;19928;-89
2021/12/11 11:32:05;;;;;;;;;;;;;;;2.06;91.25;95941.88;5024347;23;19921;-86
2021/12/11 11:34:31;;;;;;;;;;;;;;;2.09;91.75;95951.88;5010207;28;19999;-86
2021/12/11 11:36:59;;;;;;;;;;;;;;;2.09;91.99;95946.69;5007065;28;19922;-87
2021/12/11 11:39:26;;;;;;;;;;;;;;;2.17;91.63;95949.13;5008519;28;19922;-87
2021/12/11 11:41:54;;;;;;;;;;;;;;;2.15;91.55;95961.47;5008486;28;19948;-87
2021/12/11 11:44:21;;;;;;;;;;;;;;;2.23;91.51;95956.16;5006646;28;19928;-86
2021/12/11 11:46:47;;;;;;;;;;;;;;;2.12;90.71;95956.69;4988330;28;19929;-87
2021/12/11 11:49:13;;;;;;;;;;;;;;;2.22;91.64;95964.94;5015878;28;19910;-85
2021/12/11 11:51:41;;;;;;;;;;;;;;;2.09;90.26;95977.81;4989219;28;19985;-86
2021/12/11 11:54:10;;;;;;;;;;;;;;;2.18;90.96;95976.69;5007445;28;19941;-87
2021/12/11 11:56:37;;;;;;;;;;;;;;;2.13;91.15;95984.22;5006414;28;19953;-85
2021/12/11 11:59:03;;;;;;;;;;;;;;;2.34;89.97;95980.78;5006066;28;20373;-87
2021/12/11 12:01:31;;;;;;;;;;;;;;;2.24;90.48;95991.50;4990222;28;19933;-85
2021/12/11 12:03:57;;;;;;;;;;;;;;;2.46;90.30;96000.03;5005071;28;19922;-86
2021/12/11 12:06:25;;;;;;;;;;;;;;;2.43;91.48;95997.03;4987937;28;19910;-86
2021/12/11 12:08:51;;;;;;;;;;;;;;;2.41;90.84;96007.59;5016739;28;19953;-87
2021/12/11 12:11:21;;;;;;;;;;;;;;;2.39;89.96;96009.59;5016399;28;19913;-87
2021/12/11 12:13:49;;;;;;;;;;;;;;;2.39;89.07;96019.16;5016521;28;19916;-86
2021/12/11 12:16:15;;;;;;;;;;;;;;;2.43;88.79;96021.19;5014459;28;19941;-85
2021/12/11 12:18:43;;;;;;;;;;;;;;;2.49;90.83;96014.44;4996501;28;19966;-86
2021/12/11 12:21:09;;;;;;;;;;;;;;;2.54;88.75;96023.28;5010937;28;19933;-85
2021/12/11 12:23:35;;;;;;;;;;;;;;;2.46;88.66;96030.38;5011311;28;20302;-86
2021/12/11 12:26:02;;;;;;;;;;;;;;;2.50;89.37;96031.63;5009502;28;20020;-86
2021/12/11 12:28:31;;;;;;;;;;;;;;;2.44;87.84;96037.56;4990673;28;19922;-86
2021/12/11 12:30:58;;;;;;;;;;;;;;;2.51;88.11;96041.00;5005036;28;19921;-85
2021/12/11 12:33:23;;;;;;;;;;;;;;;2.53;87.00;96044.22;4988127;28;19925;-85
2021/12/11 12:35:49;;;;;;;;;;;;;;;2.42;86.21;96044.72;4987663;28;20057;-86
2021/12/11 12:38:16;;;;;;;;;;;;;;;2.41;85.96;96043.13;5006934;28;19981;-84
2021/12/11 12:40:50;;;;;;;;;;;;;;;2.46;86.42;96051.16;5004579;28;19921;-86
2021/12/11 12:43:42;;;;;;;;;;;;;;;2.54;84.50;96051.03;4987833;28;19926;-87
2021/12/11 12:46:07;;;;;;;;;;;;;;;2.57;85.69;96054.03;5004918;28;19932;-86
2021/12/11 12:48:33;;;;;;;;;;;;;;;2.48;85.58;96060.38;5007259;28;19940;-86
2021/12/11 12:51:02;;;;;;;;;;;;;;;2.56;85.48;96060.22;4991932;28;19921;-86
2021/12/11 12:53:33;;;;;;;;;;;;;;;2.71;85.14;96069.72;5004841;28;19922;-86
2021/12/11 12:56:02;;;;;;;;;;;;;;;2.66;86.16;96072.09;4995899;28;19957;-87
2021/12/11 12:58:30;;;;;;;;;;;;;;;2.71;84.94;96064.53;5012908;28;19929;-85
2021/12/11 13:00:57;;;;;;;;;;;;;;;2.78;84.12;96076.56;5010969;28;19928;-85
2021/12/11 13:03:27;;;;;;;;;;;;;;;2.71;84.35;96077.50;4999113;28;19909;-86
2021/12/11 13:05:54;;;;;;;;;;;;;;;2.53;84.66;96076.19;5013568;28;19922;-87
2021/12/11 13:08:25;;;;;;;;;;;;;;;2.74;84.48;96082.31;5010646;28;19996;-86